createdAt,value
2022-11-10T00:01:11.375Z,66.80
2022-11-10T00:03:40.839Z,58.33
2022-11-10T00:06:10.090Z,54.97
2022-11-10T00:08:37.433Z,52.97
2022-11-10T00:11:08.556Z,56.00
2022-11-10T00:13:57.656Z,58.90
2022-11-10T00:16:43.230Z,61.47
2022-11-10T00:19:11.197Z,59.30
2022-11-10T00:21:38.537Z,51.87
2022-11-10T00:24:06.013Z,58.93
2022-11-10T00:26:33.612Z,57.47
2022-11-10T00:29:00.871Z,65.93
2022-11-10T00:31:31.051Z,63.83
2022-11-10T00:33:58.724Z,56.13
2022-11-10T00:36:26.214Z,58.47
2022-11-10T00:38:53.930Z,55.77
2022-11-10T00:41:22.004Z,55.93
2022-11-10T00:43:49.632Z,47.00
2022-11-10T00:46:17.434Z,49.90
2022-11-10T00:48:44.903Z,47.63
2022-11-10T00:51:27.860Z,51.77
2022-11-10T00:53:56.318Z,49.80
2022-11-10T00:56:24.996Z,48.93
2022-11-10T00:58:53.523Z,50.37
2022-11-10T01:01:24.849Z,48.10
2022-11-10T01:03:53.187Z,53.27
2022-11-10T01:06:21.344Z,50.57
2022-11-10T01:08:49.226Z,50.30
2022-11-10T01:11:19.584Z,46.77
2022-11-10T01:13:47.418Z,47.37
2022-11-10T01:16:18.281Z,49.07
2022-11-10T01:18:54.204Z,48.13
2022-11-10T01:21:22.501Z,44.83
2022-11-10T01:23:50.088Z,49.17
2022-11-10T01:26:18.386Z,47.57
2022-11-10T01:28:45.867Z,50.17
2022-11-10T01:31:20.111Z,51.93
2022-11-10T01:33:47.412Z,49.77
2022-11-10T01:36:15.309Z,50.63
2022-11-10T01:38:43.975Z,46.90
2022-11-10T01:41:13.301Z,45.77
2022-11-10T01:43:41.052Z,45.30
2022-11-10T01:46:13.710Z,53.60
2022-11-10T01:49:04.419Z,58.67
2022-11-10T01:51:49.709Z,57.43
2022-11-10T01:54:22.744Z,55.47
2022-11-10T01:56:53.528Z,53.83
2022-11-10T01:59:28.100Z,51.17
2022-11-10T02:01:59.086Z,50.93
2022-11-10T02:04:27.551Z,52.17
2022-11-10T02:06:56.339Z,51.37
2022-11-10T02:09:23.715Z,48.70
2022-11-10T02:11:56.584Z,55.60
2022-11-10T02:14:24.172Z,51.97
2022-11-10T02:16:51.508Z,52.63
2022-11-10T02:19:24.985Z,46.70
2022-11-10T02:21:53.110Z,43.40
2022-11-10T02:24:20.791Z,45.80
2022-11-10T02:26:54.458Z,50.60
2022-11-10T02:29:22.765Z,45.30
2022-11-10T02:31:51.523Z,46.67
2022-11-10T02:34:18.857Z,51.27
2022-11-10T02:36:46.316Z,46.37
2022-11-10T02:39:13.691Z,52.80
2022-11-10T02:41:41.752Z,54.33
2022-11-10T02:44:09.467Z,50.47
2022-11-10T02:46:37.796Z,43.07
2022-11-10T02:49:05.260Z,50.70
2022-11-10T02:51:33.894Z,47.23
2022-11-10T02:54:01.627Z,50.80
2022-11-10T02:56:29.164Z,47.93
2022-11-10T02:58:56.715Z,53.00
2022-11-10T03:01:24.009Z,49.87
2022-11-10T03:03:52.183Z,51.87
2022-11-10T03:06:20.622Z,52.03
2022-11-10T03:08:47.899Z,49.10
2022-11-10T03:11:15.278Z,50.77
2022-11-10T03:14:00.512Z,53.37
2022-11-10T03:16:28.802Z,52.00
2022-11-10T03:18:56.382Z,51.50
2022-11-10T03:21:23.753Z,55.20
2022-11-10T03:23:51.080Z,49.20
2022-11-10T03:26:18.944Z,56.87
2022-11-10T03:28:46.160Z,57.37
2022-11-10T03:31:13.600Z,52.90
2022-11-10T03:33:41.472Z,50.37
2022-11-10T03:36:08.984Z,51.50
2022-11-10T03:38:36.270Z,49.77
2022-11-10T03:41:18.920Z,48.57
2022-11-10T03:43:47.906Z,44.17
2022-11-10T03:46:15.612Z,42.80
2022-11-10T03:48:44.564Z,39.57
2022-11-10T03:51:14.905Z,42.77
2022-11-10T03:53:42.299Z,45.27
2022-11-10T03:56:09.891Z,43.23
2022-11-10T03:58:37.223Z,41.17
2022-11-10T04:01:04.660Z,42.37
2022-11-10T04:03:32.045Z,40.50
2022-11-10T04:06:17.619Z,42.87
2022-11-10T04:09:00.128Z,43.67
2022-11-10T04:11:47.574Z,42.77
2022-11-10T04:14:34.293Z,42.80
2022-11-10T04:17:02.796Z,40.10
2022-11-10T04:19:30.354Z,43.07
2022-11-10T04:21:58.057Z,44.27
2022-11-10T04:24:25.558Z,40.03
2022-11-10T04:26:52.943Z,44.93
2022-11-10T04:29:21.409Z,42.70
2022-11-10T04:31:48.816Z,43.07
2022-11-10T04:34:16.499Z,43.17
2022-11-10T04:36:45.133Z,42.37
2022-11-10T04:39:13.314Z,45.90
2022-11-10T04:41:40.718Z,45.53
2022-11-10T04:44:08.199Z,43.23
2022-11-10T04:46:39.889Z,45.33
2022-11-10T04:49:08.641Z,46.50
2022-11-10T04:51:38.379Z,43.53
2022-11-10T04:54:07.561Z,42.97
2022-11-10T04:56:35.210Z,48.90
2022-11-10T04:59:02.592Z,45.70
2022-11-10T05:01:29.951Z,43.77
2022-11-10T05:03:57.735Z,43.37
2022-11-10T05:06:25.256Z,45.07
2022-11-10T05:08:52.940Z,43.47
2022-11-10T05:11:20.480Z,44.87
2022-11-10T05:13:48.641Z,44.13
2022-11-10T05:16:17.009Z,46.27
2022-11-10T05:18:44.393Z,43.07
2022-11-10T05:21:11.954Z,41.00
2022-11-10T05:23:39.514Z,45.93
2022-11-10T05:26:12.226Z,41.33
2022-11-10T05:28:40.846Z,40.50
2022-11-10T05:31:09.037Z,41.30
2022-11-10T05:33:38.075Z,41.77
2022-11-10T05:36:07.317Z,40.70
2022-11-10T05:38:40.221Z,42.83
2022-11-10T05:41:09.407Z,39.47
2022-11-10T05:43:36.836Z,40.13
2022-11-10T05:46:04.272Z,42.20
2022-11-10T05:48:31.894Z,38.27
2022-11-10T05:50:59.363Z,45.57
2022-11-10T05:53:27.117Z,45.87
2022-11-10T05:55:54.377Z,47.17
2022-11-10T05:58:22.426Z,48.50
2022-11-10T06:00:49.771Z,47.07
2022-11-10T06:03:19.313Z,44.83
2022-11-10T06:05:46.938Z,45.30
2022-11-10T06:08:14.335Z,39.93
2022-11-10T06:10:41.991Z,44.57
2022-11-10T06:13:09.870Z,45.13
2022-11-10T06:15:37.211Z,66.20
2022-11-10T06:18:04.674Z,104.53
2022-11-10T06:20:32.421Z,91.40
2022-11-10T06:23:09.679Z,85.67
2022-11-10T06:25:38.532Z,55.73
2022-11-10T06:28:08.890Z,66.30
2022-11-10T06:30:38.046Z,57.50
2022-11-10T06:33:05.432Z,46.67
2022-11-10T06:35:33.141Z,38.10
2022-11-10T06:38:05.552Z,41.97
2022-11-10T06:40:33.332Z,41.50
2022-11-10T06:43:01.795Z,37.63
2022-11-10T06:45:29.552Z,32.33
2022-11-10T06:48:05.160Z,33.10
2022-11-10T06:50:32.897Z,32.80
2022-11-10T06:53:01.087Z,30.63
2022-11-10T06:55:29.058Z,32.37
2022-11-10T06:57:56.628Z,28.07
2022-11-10T07:00:25.110Z,27.47
2022-11-10T07:03:12.593Z,27.93
2022-11-10T07:05:40.550Z,26.37
2022-11-10T07:08:17.370Z,25.67
2022-11-10T07:10:55.296Z,26.50
2022-11-10T07:13:23.314Z,23.97
2022-11-10T07:15:51.516Z,26.50
2022-11-10T07:18:19.045Z,26.73
2022-11-10T07:20:46.582Z,27.97
2022-11-10T07:23:13.904Z,26.47
2022-11-10T07:25:41.118Z,25.80
2022-11-10T07:28:10.863Z,24.57
2022-11-10T07:30:38.638Z,26.00
2022-11-10T07:33:12.660Z,24.43
2022-11-10T07:35:40.288Z,23.37
2022-11-10T07:38:13.544Z,24.60
2022-11-10T07:40:41.290Z,22.27
2022-11-10T07:43:08.521Z,21.77
2022-11-10T07:45:35.966Z,25.43
2022-11-10T07:48:05.461Z,21.93
2022-11-10T07:50:36.836Z,22.50
2022-11-10T07:53:08.385Z,23.57
2022-11-10T07:55:38.004Z,19.93
2022-11-10T07:58:06.274Z,20.17
2022-11-10T08:00:34.215Z,22.40
2022-11-10T08:03:03.527Z,19.47
2022-11-10T08:05:31.501Z,17.13
2022-11-10T08:08:00.340Z,19.67
2022-11-10T08:10:29.107Z,21.57
2022-11-10T08:12:58.152Z,18.23
2022-11-10T08:15:26.510Z,21.17
2022-11-10T08:18:00.825Z,21.57
2022-11-10T08:20:29.291Z,18.77
2022-11-10T08:23:01.324Z,20.07
2022-11-10T08:25:35.529Z,18.60
2022-11-10T08:28:05.139Z,17.40
2022-11-10T08:30:33.140Z,17.43
2022-11-10T08:33:02.263Z,19.17
2022-11-10T08:35:31.567Z,18.27
2022-11-10T08:37:58.981Z,16.23
2022-11-10T08:40:29.505Z,13.80
2022-11-10T08:43:01.339Z,15.90
2022-11-10T08:45:30.454Z,15.90
2022-11-10T08:48:03.114Z,16.90
2022-11-10T08:50:30.959Z,13.57
2022-11-10T08:53:01.327Z,13.33
2022-11-10T08:55:29.033Z,13.40
2022-11-10T08:58:01.107Z,13.67
2022-11-10T09:00:29.650Z,13.83
2022-11-10T09:03:03.615Z,11.47
2022-11-10T09:05:30.975Z,11.50
2022-11-10T09:07:58.703Z,12.77
2022-11-10T09:10:26.036Z,12.20
2022-11-10T09:12:53.332Z,13.30
2022-11-10T09:15:20.713Z,12.13
2022-11-10T09:17:48.268Z,14.63
2022-11-10T09:20:16.043Z,11.03
2022-11-10T09:22:43.376Z,11.33
2022-11-10T09:25:11.001Z,14.83
2022-11-10T09:27:39.009Z,12.10
2022-11-10T09:30:10.544Z,11.93
2022-11-10T09:32:40.483Z,11.13
2022-11-10T09:35:08.133Z,10.77
2022-11-10T09:37:40.495Z,10.03
2022-11-10T09:40:13.133Z,11.20
2022-11-10T09:42:42.168Z,10.47
2022-11-10T09:45:20.725Z,11.23
2022-11-10T09:48:06.803Z,11.87
2022-11-10T09:50:58.660Z,10.97
2022-11-10T09:53:35.058Z,13.03
2022-11-10T09:56:05.503Z,12.07
2022-11-10T09:58:44.869Z,9.20
2022-11-10T10:01:32.452Z,10.67
2022-11-10T10:04:12.764Z,7.83
2022-11-10T10:07:10.803Z,8.37
2022-11-10T10:09:50.776Z,9.27
2022-11-10T10:12:45.865Z,6.70
2022-11-10T10:15:39.324Z,6.37
2022-11-10T10:18:26.964Z,7.30
2022-11-10T10:21:19.847Z,6.37
2022-11-10T10:24:11.418Z,9.40
2022-11-10T10:26:45.473Z,6.90
2022-11-10T10:29:39.939Z,7.33
2022-11-10T10:32:13.339Z,8.13
2022-11-10T10:34:42.153Z,7.97
2022-11-10T10:37:41.099Z,7.43
2022-11-10T10:40:16.597Z,9.57
2022-11-10T10:42:44.138Z,9.13
2022-11-10T10:45:26.187Z,8.40
2022-11-10T10:47:56.647Z,11.40
2022-11-10T10:50:32.572Z,8.10
2022-11-10T10:53:12.142Z,10.97
2022-11-10T10:55:45.245Z,9.90
2022-11-10T10:58:27.913Z,8.97
2022-11-10T11:01:01.886Z,9.07
2022-11-10T11:03:47.503Z,10.70
2022-11-10T11:06:17.553Z,7.57
2022-11-10T11:09:09.897Z,8.80
2022-11-10T11:11:39.181Z,7.03
2022-11-10T11:14:26.719Z,5.20
2022-11-10T11:17:00.582Z,9.17
2022-11-10T11:19:39.068Z,6.07
2022-11-10T11:22:33.015Z,6.50
2022-11-10T11:25:23.218Z,7.00
2022-11-10T11:27:57.083Z,6.83
2022-11-10T11:30:29.005Z,6.60
2022-11-10T11:33:13.124Z,5.03
2022-11-10T11:35:57.384Z,5.60
2022-11-10T11:38:53.912Z,9.43
2022-11-10T11:41:24.667Z,6.60
2022-11-10T11:44:10.751Z,9.67
2022-11-10T11:46:50.902Z,6.27
2022-11-10T11:49:48.874Z,8.67
2022-11-10T11:52:36.507Z,6.43
2022-11-10T11:55:04.679Z,5.87
2022-11-10T11:57:49.239Z,7.47
2022-11-10T12:00:19.134Z,6.70
2022-11-10T12:03:14.299Z,5.93
2022-11-10T12:06:15.008Z,7.27
2022-11-10T12:09:03.760Z,5.50
2022-11-10T12:11:55.685Z,6.43
2022-11-10T12:15:01.661Z,7.77
2022-11-10T12:17:47.647Z,6.30
2022-11-10T12:20:51.586Z,5.33
2022-11-10T12:23:46.755Z,6.87
2022-11-10T12:26:19.720Z,5.73
2022-11-10T12:28:53.621Z,7.47
2022-11-10T12:31:26.299Z,4.40
2022-11-10T12:34:15.363Z,6.57
2022-11-10T12:36:43.771Z,11.77
2022-11-10T12:39:40.160Z,16.00
2022-11-10T12:42:14.988Z,14.40
2022-11-10T12:44:52.806Z,14.57
2022-11-10T12:47:24.506Z,10.17
2022-11-10T12:50:02.668Z,7.67
2022-11-10T12:52:40.687Z,11.37
2022-11-10T12:55:13.404Z,9.80
2022-11-10T12:57:43.138Z,8.63
2022-11-10T13:00:30.417Z,5.13
2022-11-10T13:02:59.503Z,9.20
2022-11-10T13:05:38.099Z,9.13
2022-11-10T13:08:17.122Z,4.77
2022-11-10T13:10:56.708Z,7.30
2022-11-10T13:13:25.653Z,5.77
2022-11-10T13:15:59.091Z,5.57
2022-11-10T13:18:32.551Z,10.07
2022-11-10T13:21:00.632Z,4.40
2022-11-10T13:23:38.221Z,6.77
2022-11-10T13:26:26.904Z,6.40
2022-11-10T13:29:00.183Z,5.93
2022-11-10T13:31:27.463Z,5.03
2022-11-10T13:34:10.342Z,5.97
2022-11-10T13:36:42.908Z,6.50
2022-11-10T13:39:36.398Z,6.80
2022-11-10T13:42:09.620Z,4.67
2022-11-10T13:44:48.386Z,4.83
2022-11-10T13:47:40.160Z,6.37
2022-11-10T13:50:21.736Z,6.97
2022-11-10T13:53:04.123Z,4.97
2022-11-10T13:55:53.316Z,6.60
2022-11-10T13:58:30.250Z,6.23
2022-11-10T14:01:19.051Z,4.90
2022-11-10T14:03:46.413Z,6.10
2022-11-10T14:06:40.862Z,7.87
2022-11-10T14:09:29.342Z,7.13
2022-11-10T14:12:15.817Z,5.47
2022-11-10T14:14:58.381Z,5.50
2022-11-10T14:17:32.687Z,6.07
2022-11-10T14:20:04.913Z,5.90
2022-11-10T14:22:43.190Z,8.47
2022-11-10T14:25:36.962Z,6.87
2022-11-10T14:28:28.661Z,8.97
2022-11-10T14:30:56.939Z,6.37
2022-11-10T14:33:26.033Z,6.40
2022-11-10T14:35:59.800Z,6.93
2022-11-10T14:38:37.408Z,8.80
2022-11-10T14:41:06.868Z,8.10
2022-11-10T14:43:39.481Z,9.77
2022-11-10T14:46:08.034Z,9.90
2022-11-10T14:48:38.354Z,8.30
2022-11-10T14:51:11.979Z,13.70
2022-11-10T14:54:02.035Z,9.73
2022-11-10T14:56:32.255Z,7.07
2022-11-10T14:59:02.869Z,8.63
2022-11-10T15:01:35.569Z,9.00
2022-11-10T15:04:08.558Z,7.33
2022-11-10T15:06:36.445Z,7.93
2022-11-10T15:09:26.451Z,5.30
2022-11-10T15:12:22.966Z,7.93
2022-11-10T15:15:00.124Z,6.90
2022-11-10T15:17:47.463Z,7.60
2022-11-10T15:20:32.859Z,10.53
2022-11-10T15:23:03.583Z,7.87
2022-11-10T15:25:39.990Z,9.73
2022-11-10T15:28:13.287Z,9.37
2022-11-10T15:30:51.393Z,8.73
2022-11-10T15:33:31.716Z,11.03
2022-11-10T15:36:17.483Z,8.17
2022-11-10T15:38:45.221Z,8.83
2022-11-10T15:41:15.735Z,10.07
2022-11-10T15:43:43.590Z,9.43
2022-11-10T15:46:21.044Z,8.73
2022-11-10T15:48:50.801Z,8.90
2022-11-10T15:51:25.986Z,7.60
2022-11-10T15:53:54.571Z,10.90
2022-11-10T15:56:23.961Z,10.63
2022-11-10T15:58:57.882Z,7.77
2022-11-10T16:01:28.414Z,8.83
2022-11-10T16:03:55.829Z,12.00
2022-11-10T16:06:23.373Z,11.57
2022-11-10T16:08:51.035Z,11.83
2022-11-10T16:11:20.915Z,11.93
2022-11-10T16:13:50.476Z,16.43
2022-11-10T16:16:19.470Z,13.40
2022-11-10T16:18:47.226Z,14.57
2022-11-10T16:21:16.864Z,11.40
2022-11-10T16:23:44.304Z,16.10
2022-11-10T16:26:15.638Z,25.07
2022-11-10T16:28:44.840Z,27.07
2022-11-10T16:31:12.404Z,13.07
2022-11-10T16:33:41.699Z,13.90
2022-11-10T16:36:25.327Z,11.37
2022-11-10T16:38:53.733Z,12.07
2022-11-10T16:41:21.647Z,10.83
2022-11-10T16:43:49.030Z,11.17
2022-11-10T16:46:29.732Z,12.60
2022-11-10T16:49:00.359Z,13.30
2022-11-10T16:51:44.173Z,13.93
2022-11-10T16:54:16.075Z,14.53
2022-11-10T16:56:52.045Z,16.53
2022-11-10T16:59:21.554Z,18.50
2022-11-10T17:01:50.441Z,14.77
2022-11-10T17:04:19.525Z,18.37
2022-11-10T17:06:47.059Z,15.37
2022-11-10T17:09:19.485Z,18.47
2022-11-10T17:11:47.293Z,16.87
2022-11-10T17:14:15.278Z,18.67
2022-11-10T17:16:47.978Z,19.27
2022-11-10T17:19:27.391Z,20.97
2022-11-10T17:21:56.821Z,21.33
2022-11-10T17:24:25.309Z,20.77
2022-11-10T17:26:54.622Z,19.57
2022-11-10T17:29:22.272Z,16.70
2022-11-10T17:31:52.150Z,21.13
2022-11-10T17:34:19.485Z,19.77
2022-11-10T17:36:46.816Z,21.13
2022-11-10T17:39:18.693Z,76.60
2022-11-10T17:41:48.779Z,24.73
2022-11-10T17:44:17.025Z,20.60
2022-11-10T17:46:45.049Z,20.00
2022-11-10T17:49:12.737Z,19.30
2022-11-10T17:51:40.795Z,19.50
2022-11-10T17:54:14.053Z,17.27
2022-11-10T17:56:42.177Z,20.10
2022-11-10T17:59:09.494Z,20.13
2022-11-10T18:01:37.727Z,19.33
2022-11-10T18:04:05.453Z,39.77
2022-11-10T18:06:32.839Z,37.93
2022-11-10T18:09:00.160Z,37.00
2022-11-10T18:11:27.417Z,30.20
2022-11-10T18:13:54.767Z,32.93
2022-11-10T18:16:22.246Z,21.63
2022-11-10T18:18:49.669Z,23.83
2022-11-10T18:21:16.931Z,31.97
2022-11-10T18:23:44.966Z,35.83
2022-11-10T18:26:12.459Z,26.53
2022-11-10T18:28:40.323Z,32.13
2022-11-10T18:31:09.117Z,28.23
2022-11-10T18:33:37.348Z,36.77
2022-11-10T18:36:04.955Z,75.20
2022-11-10T18:38:32.724Z,55.87
2022-11-10T18:41:23.295Z,42.07
2022-11-10T18:43:51.175Z,47.53
2022-11-10T18:46:18.567Z,38.23
2022-11-10T18:48:46.941Z,33.70
2022-11-10T18:51:15.333Z,47.37
2022-11-10T18:53:42.704Z,35.57
2022-11-10T18:56:10.295Z,24.27
2022-11-10T18:58:37.579Z,21.57
2022-11-10T19:01:10.865Z,23.27
2022-11-10T19:03:38.565Z,24.40
2022-11-10T19:06:06.407Z,25.63
2022-11-10T19:08:33.670Z,28.97
2022-11-10T19:11:01.047Z,29.07
2022-11-10T19:13:28.516Z,22.07
2022-11-10T19:16:00.574Z,17.33
2022-11-10T19:18:31.092Z,22.03
2022-11-10T19:20:58.654Z,37.27
2022-11-10T19:23:26.368Z,102.03
2022-11-10T19:26:06.284Z,85.70
2022-11-10T19:28:33.839Z,40.47
2022-11-10T19:31:09.896Z,42.77
2022-11-10T19:33:38.879Z,54.07
2022-11-10T19:36:11.828Z,175.73
2022-11-10T19:38:39.131Z,157.13
2022-11-10T19:41:28.613Z,97.97
2022-11-10T19:43:57.195Z,101.53
2022-11-10T19:46:28.307Z,84.80
2022-11-10T19:48:58.765Z,84.70
2022-11-10T19:51:26.404Z,49.63
2022-11-10T19:54:02.081Z,47.10
2022-11-10T19:56:32.129Z,33.50
2022-11-10T19:59:00.769Z,30.53
2022-11-10T20:01:28.808Z,37.30
2022-11-10T20:03:56.221Z,46.17
2022-11-10T20:06:23.775Z,32.30
2022-11-10T20:08:51.402Z,33.17
2022-11-10T20:11:21.732Z,45.77
2022-11-10T20:13:54.649Z,52.77
2022-11-10T20:16:22.791Z,47.63
2022-11-10T20:18:50.061Z,35.63
2022-11-10T20:21:23.066Z,25.57
2022-11-10T20:23:57.766Z,33.20
2022-11-10T20:26:25.992Z,34.43
2022-11-10T20:28:53.374Z,41.93
2022-11-10T20:31:24.606Z,41.93
2022-11-10T20:33:55.192Z,40.80
2022-11-10T20:36:27.713Z,33.10
2022-11-10T20:38:56.292Z,35.93
2022-11-10T20:41:26.533Z,33.30
2022-11-10T20:43:57.272Z,36.20
2022-11-10T20:46:53.045Z,34.47
2022-11-10T20:49:12.129Z,33.93
2022-11-10T20:51:40.219Z,30.90
2022-11-10T20:54:07.632Z,31.17
2022-11-10T20:56:34.910Z,28.30
2022-11-10T20:59:02.239Z,25.87
2022-11-10T21:01:30.216Z,25.70
2022-11-10T21:03:57.585Z,26.63
2022-11-10T21:06:24.858Z,35.00
2022-11-10T21:08:53.831Z,38.27
2022-11-10T21:11:40.333Z,40.10
2022-11-10T21:14:07.687Z,35.03
2022-11-10T21:16:35.032Z,36.43
2022-11-10T21:19:02.471Z,35.90
2022-11-10T21:21:34.904Z,40.30
2022-11-10T21:24:06.725Z,44.37
2022-11-10T21:26:34.898Z,40.70
2022-11-10T21:29:03.613Z,40.23
2022-11-10T21:31:31.426Z,46.23
2022-11-10T21:33:59.952Z,48.37
2022-11-10T21:36:29.790Z,49.50
2022-11-10T21:39:01.649Z,41.77
2022-11-10T21:41:29.397Z,51.93
2022-11-10T21:43:56.987Z,49.97
2022-11-10T21:46:24.588Z,55.07
2022-11-10T21:48:52.184Z,53.57
2022-11-10T21:51:22.586Z,45.57
2022-11-10T21:53:49.855Z,56.13
2022-11-10T21:56:17.796Z,65.40
2022-11-10T21:58:45.111Z,63.53
2022-11-10T22:01:19.422Z,74.07
2022-11-10T22:03:47.124Z,69.60
2022-11-10T22:06:16.746Z,61.90
2022-11-10T22:08:45.782Z,67.43
2022-11-10T22:11:34.348Z,68.53
2022-11-10T22:14:20.816Z,66.43
2022-11-10T22:17:08.691Z,69.07
2022-11-10T22:19:37.257Z,66.50
2022-11-10T22:22:04.754Z,55.57
2022-11-10T22:24:34.706Z,63.93
2022-11-10T22:27:04.351Z,48.57
2022-11-10T22:29:33.765Z,52.70
2022-11-10T22:32:02.280Z,54.33
2022-11-10T22:34:30.112Z,47.70
2022-11-10T22:37:00.041Z,48.90
2022-11-10T22:39:46.220Z,55.80
2022-11-10T22:42:32.644Z,53.03
2022-11-10T22:45:00.299Z,50.30
2022-11-10T22:47:47.502Z,45.83
2022-11-10T22:50:14.867Z,59.20
2022-11-10T22:52:42.746Z,66.87
2022-11-10T22:55:10.404Z,58.73
2022-11-10T22:57:37.961Z,55.33
2022-11-10T23:00:05.874Z,43.30
2022-11-10T23:02:33.509Z,40.27
2022-11-10T23:05:00.788Z,36.87
2022-11-10T23:07:29.193Z,39.50
2022-11-10T23:09:58.508Z,41.83
2022-11-10T23:12:26.201Z,39.50
2022-11-10T23:14:54.148Z,37.97
2022-11-10T23:17:21.799Z,39.57
2022-11-10T23:19:49.019Z,35.77
2022-11-10T23:22:16.234Z,40.77
2022-11-10T23:24:43.503Z,32.90
2022-11-10T23:27:10.798Z,42.93
2022-11-10T23:29:38.095Z,44.27
2022-11-10T23:32:05.655Z,37.23
2022-11-10T23:34:32.904Z,36.17
2022-11-10T23:37:00.284Z,40.53
2022-11-10T23:39:27.590Z,35.53
2022-11-10T23:41:54.807Z,37.20
2022-11-10T23:44:22.076Z,40.00
2022-11-10T23:46:49.502Z,33.87
2022-11-10T23:49:17.476Z,37.63
2022-11-10T23:51:44.735Z,35.97
2022-11-10T23:54:12.029Z,35.27
2022-11-10T23:56:39.326Z,35.00
2022-11-10T23:59:06.554Z,32.87
